createdAt,value
2022-09-23T00:01:45.083Z,16.12
2022-09-23T00:04:13.166Z,15.95
2022-09-23T00:06:42.096Z,15.81
2022-09-23T00:09:11.114Z,15.69
2022-09-23T00:11:40.150Z,15.70
2022-09-23T00:14:09.447Z,15.44
2022-09-23T00:16:39.038Z,15.29
2022-09-23T00:19:07.971Z,15.11
2022-09-23T00:21:36.999Z,15.15
2022-09-23T00:24:06.153Z,15.05
2022-09-23T00:26:34.403Z,14.75
2022-09-23T00:29:03.075Z,14.89
2022-09-23T00:31:32.327Z,14.73
2022-09-23T00:34:04.156Z,14.89
2022-09-23T00:36:33.135Z,14.92
2022-09-23T00:39:02.641Z,14.84
2022-09-23T00:41:36.056Z,14.51
2022-09-23T00:44:24.716Z,14.50
2022-09-23T00:46:54.221Z,14.46
2022-09-23T00:49:30.279Z,14.31
2022-09-23T00:52:03.592Z,14.24
2022-09-23T00:54:33.266Z,14.30
2022-09-23T00:57:02.553Z,14.29
2022-09-23T00:59:31.888Z,14.26
2022-09-23T01:02:01.455Z,14.24
2022-09-23T01:04:30.684Z,14.29
2022-09-23T01:06:59.432Z,14.20
2022-09-23T01:09:27.552Z,13.99
2022-09-23T01:12:04.469Z,14.03
2022-09-23T01:14:46.679Z,14.04
2022-09-23T01:17:22.758Z,13.95
2022-09-23T01:19:57.563Z,13.95
2022-09-23T01:22:50.801Z,13.92
2022-09-23T01:25:38.566Z,14.01
2022-09-23T01:28:13.665Z,13.97
2022-09-23T01:31:17.255Z,13.97
2022-09-23T01:34:10.566Z,13.75
2022-09-23T01:36:46.734Z,13.59
2022-09-23T01:39:30.741Z,13.73
2022-09-23T01:42:02.721Z,13.81
2022-09-23T01:44:51.866Z,13.82
2022-09-23T01:47:25.110Z,14.05
2022-09-23T01:50:03.364Z,14.22
2022-09-23T01:52:44.817Z,14.13
2022-09-23T01:55:33.920Z,14.13
2022-09-23T01:58:14.177Z,14.20
2022-09-23T02:00:56.956Z,14.14
2022-09-23T02:03:34.838Z,14.09
2022-09-23T02:06:18.866Z,13.96
2022-09-23T02:09:03.970Z,13.97
2022-09-23T02:11:37.267Z,13.98
2022-09-23T02:14:18.277Z,13.96
2022-09-23T02:16:50.181Z,13.90
2022-09-23T02:19:37.068Z,13.82
2022-09-23T02:22:37.017Z,13.74
2022-09-23T02:25:06.177Z,13.77
2022-09-23T02:27:40.699Z,13.90
2022-09-23T02:30:15.486Z,13.85
2022-09-23T02:33:18.222Z,13.89
2022-09-23T02:35:55.514Z,13.84
2022-09-23T02:38:35.627Z,13.99
2022-09-23T02:41:16.246Z,14.10
2022-09-23T02:44:05.536Z,14.16
2022-09-23T02:46:34.566Z,14.12
2022-09-23T02:49:23.376Z,14.08
2022-09-23T02:51:52.360Z,14.05
2022-09-23T02:54:22.668Z,14.06
2022-09-23T02:56:50.842Z,14.14
2022-09-23T02:59:20.514Z,14.20
2022-09-23T03:02:05.756Z,14.01
2022-09-23T03:04:55.521Z,13.94
2022-09-23T03:07:51.503Z,13.72
2022-09-23T03:10:28.572Z,13.93
2022-09-23T03:13:19.111Z,13.90
2022-09-23T03:16:00.946Z,13.99
2022-09-23T03:18:50.902Z,13.84
2022-09-23T03:21:25.959Z,13.78
2022-09-23T03:23:54.703Z,13.85
2022-09-23T03:26:31.944Z,13.80
2022-09-23T03:29:04.927Z,13.79
2022-09-23T03:31:34.775Z,13.86
2022-09-23T03:34:06.773Z,13.67
2022-09-23T03:36:54.086Z,13.69
2022-09-23T03:39:36.826Z,13.66
2022-09-23T03:42:11.045Z,13.62
2022-09-23T03:44:42.883Z,13.58
2022-09-23T03:47:14.886Z,13.45
2022-09-23T03:49:50.922Z,13.46
2022-09-23T03:52:21.172Z,13.52
2022-09-23T03:54:51.925Z,13.61
2022-09-23T03:57:24.974Z,13.70
2022-09-23T03:59:53.388Z,13.68
2022-09-23T04:02:22.500Z,13.57
2022-09-23T04:04:52.282Z,13.53
2022-09-23T04:07:20.086Z,13.55
2022-09-23T04:09:49.074Z,13.44
2022-09-23T04:12:18.403Z,13.55
2022-09-23T04:14:48.084Z,13.57
2022-09-23T04:17:17.099Z,13.48
2022-09-23T04:19:46.203Z,13.41
2022-09-23T04:22:15.609Z,13.47
2022-09-23T04:24:44.293Z,13.40
2022-09-23T04:27:13.217Z,13.54
2022-09-23T04:29:42.264Z,13.48
2022-09-23T04:32:13.200Z,13.54
2022-09-23T04:34:41.306Z,13.51
2022-09-23T04:37:09.869Z,13.51
2022-09-23T04:39:38.328Z,13.56
2022-09-23T04:42:06.593Z,13.54
2022-09-23T04:44:35.933Z,13.60
2022-09-23T04:47:05.364Z,13.62
2022-09-23T04:49:34.485Z,13.43
2022-09-23T04:52:03.510Z,13.52
2022-09-23T04:54:33.750Z,13.46
2022-09-23T04:57:02.746Z,13.65
2022-09-23T04:59:31.556Z,13.48
2022-09-23T05:02:00.626Z,13.50
2022-09-23T05:04:30.033Z,13.54
2022-09-23T05:07:03.183Z,13.42
2022-09-23T05:09:32.884Z,13.25
2022-09-23T05:12:01.867Z,13.37
2022-09-23T05:14:29.917Z,13.20
2022-09-23T05:16:58.674Z,13.20
2022-09-23T05:19:28.733Z,13.15
2022-09-23T05:21:57.758Z,13.22
2022-09-23T05:24:26.824Z,13.33
2022-09-23T05:26:57.060Z,13.20
2022-09-23T05:29:26.424Z,12.86
2022-09-23T05:31:55.940Z,13.05
2022-09-23T05:34:28.843Z,13.11
2022-09-23T05:36:59.169Z,13.11
2022-09-23T05:39:28.160Z,13.05
2022-09-23T05:41:57.159Z,13.13
2022-09-23T05:44:26.187Z,13.24
2022-09-23T05:46:54.325Z,13.23
2022-09-23T05:49:37.714Z,13.24
2022-09-23T05:52:12.232Z,13.34
2022-09-23T05:54:42.037Z,13.47
2022-09-23T05:57:11.076Z,13.42
2022-09-23T05:59:40.107Z,13.38
2022-09-23T06:02:10.435Z,13.43
2022-09-23T06:04:39.024Z,13.47
2022-09-23T06:07:07.399Z,13.38
2022-09-23T06:09:36.858Z,13.42
2022-09-23T06:12:05.738Z,13.52
2022-09-23T06:14:35.188Z,13.63
2022-09-23T06:17:04.236Z,13.60
2022-09-23T06:19:33.276Z,13.56
2022-09-23T06:22:02.280Z,13.71
2022-09-23T06:24:31.874Z,13.49
2022-09-23T06:27:02.316Z,13.58
2022-09-23T06:29:32.603Z,13.56
2022-09-23T06:32:02.977Z,13.61
2022-09-23T06:34:35.445Z,13.82
2022-09-23T06:37:18.978Z,13.70
2022-09-23T06:39:48.450Z,13.88
2022-09-23T06:42:18.459Z,14.06
2022-09-23T06:44:46.615Z,13.95
2022-09-23T06:47:16.736Z,14.37
2022-09-23T06:49:50.691Z,14.29
2022-09-23T06:52:21.817Z,14.21
2022-09-23T06:54:52.628Z,14.41
2022-09-23T06:57:22.031Z,14.30
2022-09-23T06:59:50.958Z,14.43
2022-09-23T07:02:19.728Z,14.38
2022-09-23T07:04:48.994Z,14.32
2022-09-23T07:07:19.639Z,14.50
2022-09-23T07:09:49.045Z,14.73
2022-09-23T07:12:17.761Z,14.57
2022-09-23T07:14:47.043Z,14.76
2022-09-23T07:17:16.497Z,14.70
2022-09-23T07:19:45.088Z,14.57
2022-09-23T07:22:13.160Z,14.60
2022-09-23T07:24:42.120Z,14.73
2022-09-23T07:27:11.190Z,14.66
2022-09-23T07:29:47.594Z,14.87
2022-09-23T07:32:18.023Z,14.96
2022-09-23T07:34:47.990Z,15.18
2022-09-23T07:37:19.034Z,15.29
2022-09-23T07:39:48.049Z,15.43
2022-09-23T07:42:17.074Z,15.45
2022-09-23T07:44:46.353Z,15.69
2022-09-23T07:47:15.345Z,15.63
2022-09-23T07:49:44.375Z,15.83
2022-09-23T07:52:13.403Z,15.79
2022-09-23T07:54:42.717Z,15.81
2022-09-23T07:57:12.210Z,15.63
2022-09-23T07:59:41.251Z,15.79
2022-09-23T08:02:11.489Z,16.07
2022-09-23T08:04:39.545Z,15.94
2022-09-23T08:07:08.594Z,16.05
2022-09-23T08:09:42.318Z,15.98
2022-09-23T08:12:16.462Z,16.12
2022-09-23T08:14:45.391Z,16.19
2022-09-23T08:17:14.399Z,16.27
2022-09-23T08:19:43.643Z,16.53
2022-09-23T08:22:12.695Z,16.58
2022-09-23T08:24:40.724Z,16.20
2022-09-23T08:27:11.441Z,16.38
2022-09-23T08:29:40.487Z,16.70
2022-09-23T08:32:09.545Z,16.67
2022-09-23T08:34:38.521Z,16.60
2022-09-23T08:37:13.099Z,16.67
2022-09-23T08:39:42.591Z,16.94
2022-09-23T08:42:23.616Z,17.24
2022-09-23T08:44:55.610Z,17.68
2022-09-23T08:47:28.999Z,17.62
2022-09-23T08:50:19.625Z,17.73
2022-09-23T08:53:00.224Z,17.95
2022-09-23T08:55:34.995Z,17.74
2022-09-23T08:58:25.728Z,18.06
2022-09-23T09:01:05.303Z,18.31
2022-09-23T09:03:52.841Z,17.90
2022-09-23T09:06:53.207Z,17.89
2022-09-23T09:09:25.840Z,18.10
2022-09-23T09:12:03.873Z,18.44
2022-09-23T09:14:38.910Z,18.30
2022-09-23T09:17:11.435Z,18.48
2022-09-23T09:20:06.205Z,18.47
2022-09-23T09:22:49.970Z,18.96
2022-09-23T09:25:44.115Z,19.00
2022-09-23T09:28:24.045Z,18.79
2022-09-23T09:30:58.111Z,18.94
2022-09-23T09:33:46.088Z,18.95
2022-09-23T09:36:39.372Z,19.03
2022-09-23T09:39:15.037Z,19.10
2022-09-23T09:41:47.206Z,19.12
2022-09-23T09:44:43.203Z,19.17
2022-09-23T09:47:16.178Z,19.41
2022-09-23T09:50:01.482Z,19.35
2022-09-23T09:52:31.256Z,19.47
2022-09-23T09:55:14.200Z,19.35
2022-09-23T09:57:50.530Z,19.58
2022-09-23T10:00:19.506Z,19.68
2022-09-23T10:02:54.314Z,19.61
2022-09-23T10:05:32.542Z,19.75
2022-09-23T10:08:37.375Z,19.90
2022-09-23T10:11:18.748Z,19.63
2022-09-23T10:14:07.397Z,19.75
2022-09-23T10:16:38.962Z,19.72
2022-09-23T10:19:28.514Z,19.73
2022-09-23T10:22:01.372Z,19.81
2022-09-23T10:24:33.523Z,19.94
2022-09-23T10:27:13.498Z,20.12
2022-09-23T10:29:49.523Z,20.20
2022-09-23T10:32:22.463Z,20.45
2022-09-23T10:35:14.619Z,20.30
2022-09-23T10:37:46.595Z,20.17
2022-09-23T10:40:35.671Z,20.48
2022-09-23T10:43:43.657Z,20.26
2022-09-23T10:46:40.173Z,20.29
2022-09-23T10:49:35.740Z,20.54
2022-09-23T10:52:08.628Z,20.56
2022-09-23T10:55:10.351Z,20.54
2022-09-23T10:58:06.676Z,20.62
2022-09-23T11:00:59.922Z,20.57
2022-09-23T11:03:43.684Z,20.88
2022-09-23T11:06:49.751Z,21.14
2022-09-23T11:09:35.105Z,20.76
2022-09-23T11:12:24.951Z,21.16
2022-09-23T11:15:16.982Z,20.87
2022-09-23T11:18:13.015Z,20.90
2022-09-23T11:20:55.904Z,20.70
2022-09-23T11:23:34.379Z,20.62
2022-09-23T11:26:14.946Z,20.67
2022-09-23T11:29:22.086Z,21.54
2022-09-23T11:32:00.326Z,21.48
2022-09-23T11:35:05.117Z,21.13
2022-09-23T11:37:42.211Z,21.54
2022-09-23T11:40:33.180Z,21.76
2022-09-23T11:43:22.314Z,21.18
2022-09-23T11:46:13.370Z,21.40
2022-09-23T11:48:58.258Z,21.29
2022-09-23T11:51:43.376Z,21.33
2022-09-23T11:54:23.385Z,21.49
2022-09-23T11:56:55.369Z,21.14
2022-09-23T11:59:39.351Z,21.28
2022-09-23T12:02:24.682Z,21.26
2022-09-23T12:05:05.510Z,21.44
2022-09-23T12:07:45.801Z,21.73
2022-09-23T12:10:15.413Z,21.82
2022-09-23T12:12:57.104Z,21.83
2022-09-23T12:15:49.558Z,21.61
2022-09-23T12:18:23.022Z,21.06
2022-09-23T12:20:51.730Z,21.32
2022-09-23T12:23:24.614Z,21.05
2022-09-23T12:25:57.921Z,21.06
2022-09-23T12:28:32.671Z,21.59
2022-09-23T12:31:03.095Z,21.23
2022-09-23T12:33:34.786Z,21.58
2022-09-23T12:36:05.792Z,21.18
2022-09-23T12:38:51.131Z,21.19
2022-09-23T12:41:42.891Z,21.36
2022-09-23T12:44:32.167Z,21.49
2022-09-23T12:47:25.969Z,21.25
2022-09-23T12:49:58.994Z,21.19
2022-09-23T12:52:36.090Z,21.13
2022-09-23T12:55:24.367Z,21.57
2022-09-23T12:57:54.149Z,21.67
2022-09-23T13:00:33.501Z,21.30
2022-09-23T13:03:21.448Z,21.30
2022-09-23T13:06:19.233Z,20.89
2022-09-23T13:08:48.307Z,21.01
2022-09-23T13:11:25.258Z,21.18
2022-09-23T13:13:57.710Z,21.31
2022-09-23T13:16:32.942Z,21.31
2022-09-23T13:19:07.297Z,21.72
2022-09-23T13:22:04.602Z,21.76
2022-09-23T13:24:41.641Z,21.73
2022-09-23T13:27:20.469Z,21.26
2022-09-23T13:30:15.422Z,21.61
2022-09-23T13:33:15.467Z,21.71
2022-09-23T13:35:55.018Z,21.22
2022-09-23T13:38:27.526Z,21.43
2022-09-23T13:41:21.502Z,21.68
2022-09-23T13:44:00.762Z,21.81
2022-09-23T13:46:44.482Z,21.88
2022-09-23T13:49:31.855Z,22.09
2022-09-23T13:52:01.178Z,21.35
2022-09-23T13:54:49.655Z,21.63
2022-09-23T13:57:30.671Z,21.70
2022-09-23T14:00:18.161Z,22.05
2022-09-23T14:02:48.991Z,21.85
2022-09-23T14:05:27.740Z,21.67
2022-09-23T14:07:58.028Z,21.88
2022-09-23T14:10:28.821Z,21.83
2022-09-23T14:12:57.888Z,21.95
2022-09-23T14:15:28.134Z,21.66
2022-09-23T14:18:11.126Z,21.60
2022-09-23T14:20:49.147Z,21.70
2022-09-23T14:23:20.203Z,21.63
2022-09-23T14:25:49.909Z,21.32
2022-09-23T14:28:21.987Z,21.54
2022-09-23T14:30:59.224Z,21.92
2022-09-23T14:33:32.610Z,21.29
2022-09-23T14:36:39.092Z,21.30
2022-09-23T14:39:13.632Z,21.97
2022-09-23T14:41:46.094Z,21.67
2022-09-23T14:44:24.111Z,21.51
2022-09-23T14:47:01.132Z,21.58
2022-09-23T14:49:30.135Z,21.76
2022-09-23T14:52:03.466Z,21.69
2022-09-23T14:54:35.125Z,21.34
2022-09-23T14:57:20.454Z,21.62
2022-09-23T15:00:01.141Z,21.47
2022-09-23T15:02:33.535Z,21.47
2022-09-23T15:05:10.810Z,20.73
2022-09-23T15:07:40.355Z,20.93
2022-09-23T15:10:15.885Z,21.15
2022-09-23T15:12:47.266Z,21.56
2022-09-23T15:15:16.944Z,21.44
2022-09-23T15:17:46.465Z,21.40
2022-09-23T15:20:36.336Z,21.66
2022-09-23T15:23:05.725Z,21.25
2022-09-23T15:25:36.517Z,21.40
2022-09-23T15:28:25.819Z,21.44
2022-09-23T15:30:56.441Z,21.65
2022-09-23T15:33:28.689Z,21.40
2022-09-23T15:36:00.178Z,21.15
2022-09-23T15:38:29.787Z,21.41
2022-09-23T15:41:02.735Z,21.41
2022-09-23T15:43:31.728Z,21.12
2022-09-23T15:46:06.929Z,21.56
2022-09-23T15:48:44.690Z,21.37
2022-09-23T15:51:16.695Z,21.60
2022-09-23T15:53:45.816Z,21.41
2022-09-23T15:56:15.479Z,20.82
2022-09-23T15:58:44.142Z,21.11
2022-09-23T16:01:38.466Z,21.24
2022-09-23T16:04:07.813Z,21.35
2022-09-23T16:06:36.866Z,21.39
2022-09-23T16:09:05.944Z,21.20
2022-09-23T16:11:34.252Z,21.38
2022-09-23T16:14:04.162Z,21.01
2022-09-23T16:16:34.546Z,21.12
2022-09-23T16:19:04.309Z,21.11
2022-09-23T16:21:34.238Z,21.09
2022-09-23T16:24:05.991Z,21.20
2022-09-23T16:26:35.277Z,20.95
2022-09-23T16:29:05.710Z,20.82
2022-09-23T16:31:35.169Z,20.99
2022-09-23T16:34:04.425Z,20.87
2022-09-23T16:36:36.192Z,20.81
2022-09-23T16:39:07.457Z,20.90
2022-09-23T16:41:36.689Z,21.11
2022-09-23T16:44:08.432Z,21.18
2022-09-23T16:46:42.189Z,21.14
2022-09-23T16:49:13.432Z,20.85
2022-09-23T16:51:49.236Z,21.08
2022-09-23T16:54:24.130Z,21.10
2022-09-23T16:56:56.166Z,21.08
2022-09-23T16:59:44.324Z,20.97
2022-09-23T17:02:32.864Z,20.94
2022-09-23T17:05:03.310Z,20.91
2022-09-23T17:07:34.349Z,20.80
2022-09-23T17:10:04.366Z,20.93
2022-09-23T17:12:36.428Z,20.93
2022-09-23T17:15:08.504Z,20.76
2022-09-23T17:17:38.735Z,20.75
2022-09-23T17:20:10.745Z,20.61
2022-09-23T17:22:42.568Z,20.80
2022-09-23T17:25:12.796Z,20.86
2022-09-23T17:27:41.800Z,20.70
2022-09-23T17:30:11.647Z,20.34
2022-09-23T17:32:41.470Z,20.33
2022-09-23T17:35:10.910Z,19.88
2022-09-23T17:37:46.012Z,20.05
2022-09-23T17:40:15.789Z,20.02
2022-09-23T17:42:44.697Z,20.21
2022-09-23T17:45:13.917Z,20.15
2022-09-23T17:47:42.963Z,20.31
2022-09-23T17:50:12.297Z,19.82
2022-09-23T17:52:41.284Z,20.23
2022-09-23T17:55:10.754Z,20.35
2022-09-23T17:57:39.827Z,20.33
2022-09-23T18:00:10.855Z,20.33
2022-09-23T18:02:41.849Z,20.31
2022-09-23T18:05:11.118Z,20.09
2022-09-23T18:07:40.775Z,20.26
2022-09-23T18:10:10.911Z,20.07
2022-09-23T18:12:41.192Z,20.02
2022-09-23T18:15:10.956Z,20.20
2022-09-23T18:17:39.517Z,20.17
2022-09-23T18:20:10.313Z,20.12
2022-09-23T18:22:39.293Z,20.21
2022-09-23T18:25:28.539Z,20.17
2022-09-23T18:27:58.153Z,20.17
2022-09-23T18:30:28.373Z,20.11
2022-09-23T18:32:57.393Z,20.09
2022-09-23T18:35:27.158Z,20.16
2022-09-23T18:37:56.156Z,20.19
2022-09-23T18:40:25.180Z,20.17
2022-09-23T18:42:54.216Z,20.07
2022-09-23T18:45:24.287Z,20.15
2022-09-23T18:48:11.304Z,20.22
2022-09-23T18:50:41.541Z,20.19
2022-09-23T18:53:11.464Z,20.15
2022-09-23T18:55:42.049Z,20.08
2022-09-23T18:58:13.402Z,20.20
2022-09-23T19:00:42.633Z,20.15
2022-09-23T19:03:11.441Z,20.00
2022-09-23T19:05:39.782Z,19.95
2022-09-23T19:08:09.710Z,19.98
2022-09-23T19:10:38.690Z,20.02
2022-09-23T19:13:06.747Z,20.03
2022-09-23T19:15:35.772Z,19.99
2022-09-23T19:18:04.803Z,20.00
2022-09-23T19:20:33.778Z,20.00
2022-09-23T19:23:03.427Z,20.02
2022-09-23T19:25:39.739Z,20.04
2022-09-23T19:28:09.655Z,20.09
2022-09-23T19:30:39.900Z,20.09
2022-09-23T19:33:10.650Z,20.05
2022-09-23T19:35:50.781Z,19.80
2022-09-23T19:38:31.752Z,19.52
2022-09-23T19:41:14.650Z,19.64
2022-09-23T19:43:49.058Z,19.70
2022-09-23T19:46:22.141Z,19.91
2022-09-23T19:49:04.824Z,19.77
2022-09-23T19:51:41.940Z,19.90
2022-09-23T19:54:19.536Z,19.87
2022-09-23T19:56:54.972Z,19.71
2022-09-23T19:59:33.799Z,19.74
2022-09-23T20:02:09.164Z,19.68
2022-09-23T20:04:40.689Z,19.68
2022-09-23T20:07:17.038Z,19.72
2022-09-23T20:09:54.043Z,19.79
2022-09-23T20:12:41.880Z,19.87
2022-09-23T20:15:18.924Z,19.88
2022-09-23T20:18:03.953Z,19.80
2022-09-23T20:20:32.925Z,19.90
2022-09-23T20:23:01.944Z,19.87
2022-09-23T20:25:50.950Z,19.78
2022-09-23T20:28:22.985Z,19.81
2022-09-23T20:30:52.260Z,19.80
2022-09-23T20:33:24.012Z,19.65
2022-09-23T20:35:54.277Z,19.58
2022-09-23T20:38:23.259Z,19.55
2022-09-23T20:41:00.594Z,19.54
2022-09-23T20:43:29.238Z,19.63
2022-09-23T20:45:59.117Z,19.60
2022-09-23T20:48:27.480Z,19.72
2022-09-23T20:51:04.497Z,19.74
2022-09-23T20:53:33.219Z,19.56
2022-09-23T20:56:02.480Z,19.58
2022-09-23T20:58:43.498Z,19.35
2022-09-23T21:01:12.635Z,19.19
2022-09-23T21:03:43.326Z,19.54
2022-09-23T21:06:15.336Z,19.56
2022-09-23T21:08:45.582Z,19.41
2022-09-23T21:11:16.790Z,19.35
2022-09-23T21:13:49.402Z,19.28
2022-09-23T21:16:21.467Z,19.38
2022-09-23T21:18:51.696Z,19.42
2022-09-23T21:21:22.668Z,19.54
2022-09-23T21:23:51.569Z,19.47
2022-09-23T21:26:22.558Z,19.31
2022-09-23T21:28:52.619Z,19.30
2022-09-23T21:31:24.638Z,19.33
2022-09-23T21:33:59.645Z,19.29
2022-09-23T21:36:29.655Z,19.33
2022-09-23T21:38:59.920Z,19.30
2022-09-23T21:41:28.939Z,19.19
2022-09-23T21:43:58.718Z,19.17
2022-09-23T21:46:29.024Z,19.28
2022-09-23T21:48:59.342Z,19.29
2022-09-23T21:51:37.783Z,19.37
2022-09-23T21:54:12.802Z,19.42
2022-09-23T21:56:41.364Z,19.33
2022-09-23T21:59:09.856Z,19.08
2022-09-23T22:01:41.125Z,19.17
2022-09-23T22:04:17.205Z,19.22
2022-09-23T22:06:48.995Z,19.06
2022-09-23T22:09:20.940Z,19.25
2022-09-23T22:12:08.513Z,19.19
2022-09-23T22:14:39.120Z,19.35
2022-09-23T22:17:11.012Z,19.34
2022-09-23T22:19:45.921Z,19.38
2022-09-23T22:22:16.438Z,19.38
2022-09-23T22:24:47.106Z,19.29
2022-09-23T22:27:17.191Z,19.25
2022-09-23T22:30:05.058Z,19.34
2022-09-23T22:32:54.937Z,19.35
2022-09-23T22:35:23.439Z,19.36
2022-09-23T22:37:52.435Z,19.39
2022-09-23T22:40:20.603Z,19.42
2022-09-23T22:42:49.501Z,19.44
2022-09-23T22:45:18.263Z,19.35
2022-09-23T22:47:46.334Z,19.31
2022-09-23T22:50:16.864Z,19.31
2022-09-23T22:52:45.354Z,19.35
2022-09-23T22:55:14.363Z,19.35
2022-09-23T22:57:43.312Z,19.30
2022-09-23T23:00:12.476Z,19.25
2022-09-23T23:02:42.810Z,19.19
2022-09-23T23:05:11.702Z,19.18
2022-09-23T23:07:42.501Z,19.24
2022-09-23T23:10:11.541Z,19.12
2022-09-23T23:12:40.559Z,19.03
2022-09-23T23:15:13.809Z,18.92
2022-09-23T23:17:47.551Z,18.97
2022-09-23T23:20:15.847Z,18.97
2022-09-23T23:22:44.654Z,19.00
2022-09-23T23:25:13.693Z,18.92
2022-09-23T23:27:42.600Z,18.80
2022-09-23T23:30:11.730Z,18.89
2022-09-23T23:32:40.748Z,18.85
2022-09-23T23:35:09.772Z,18.73
2022-09-23T23:37:38.157Z,18.70
2022-09-23T23:40:07.176Z,18.61
2022-09-23T23:42:35.860Z,18.63
2022-09-23T23:45:05.200Z,18.60
2022-09-23T23:47:34.127Z,18.24
2022-09-23T23:50:04.901Z,18.26
2022-09-23T23:52:33.922Z,18.09
2022-09-23T23:55:02.946Z,18.32
2022-09-23T23:57:32.196Z,18.34
